createdAt,value
2018-06-15T00:03:06.163Z,58.69
2018-06-15T00:07:09.644Z,58.91
2018-06-15T00:11:13.068Z,58.73
2018-06-15T00:15:16.475Z,58.51
2018-06-15T00:19:19.958Z,58.61
2018-06-15T00:23:23.406Z,58.64
2018-06-15T00:27:26.822Z,58.78
2018-06-15T00:31:30.463Z,58.84
2018-06-15T00:35:33.891Z,58.92
2018-06-15T00:39:37.372Z,58.95
2018-06-15T00:43:40.847Z,59.05
2018-06-15T00:47:44.271Z,59.16
2018-06-15T00:51:47.715Z,59.22
2018-06-15T00:55:51.118Z,59.00
2018-06-15T00:59:54.562Z,59.26
2018-06-15T01:03:57.970Z,59.04
2018-06-15T01:08:01.434Z,59.13
2018-06-15T01:12:05.076Z,58.94
2018-06-15T01:16:08.552Z,59.43
2018-06-15T01:20:12.096Z,59.30
2018-06-15T01:24:15.527Z,59.44
2018-06-15T01:28:18.982Z,59.53
2018-06-15T01:32:22.431Z,58.74
2018-06-15T01:36:25.895Z,59.31
2018-06-15T01:40:29.347Z,59.40
2018-06-15T01:44:32.783Z,58.96
2018-06-15T01:48:36.294Z,59.23
2018-06-15T01:52:39.728Z,59.73
2018-06-15T01:56:43.235Z,59.01
2018-06-15T02:00:47.075Z,59.03
2018-06-15T02:04:50.505Z,58.82
2018-06-15T02:08:53.968Z,58.67
2018-06-15T02:12:57.427Z,59.41
2018-06-15T02:17:00.914Z,59.17
2018-06-15T02:21:04.340Z,59.19
2018-06-15T02:25:07.784Z,58.67
2018-06-15T02:29:11.210Z,59.35
2018-06-15T02:33:14.667Z,58.88
2018-06-15T02:37:18.144Z,59.23
2018-06-15T02:41:21.574Z,59.52
2018-06-15T02:45:25.064Z,58.76
2018-06-15T02:49:28.528Z,59.36
2018-06-15T02:53:31.940Z,59.39
2018-06-15T02:57:35.411Z,59.81
2018-06-15T03:01:38.838Z,59.45
2018-06-15T03:05:42.290Z,59.21
2018-06-15T03:09:45.770Z,59.78
2018-06-15T03:13:49.230Z,59.07
2018-06-15T03:17:52.683Z,59.29
2018-06-15T03:21:56.097Z,59.48
2018-06-15T03:25:59.845Z,59.25
2018-06-15T03:30:03.375Z,59.27
2018-06-15T03:34:06.854Z,58.74
2018-06-15T03:38:10.365Z,58.81
2018-06-15T03:42:13.826Z,58.80
2018-06-15T03:46:17.278Z,58.49
2018-06-15T03:50:20.741Z,59.25
2018-06-15T03:54:24.193Z,59.26
2018-06-15T03:58:28.523Z,58.26
2018-06-15T04:02:31.967Z,58.14
2018-06-15T04:06:35.413Z,58.67
2018-06-15T04:10:38.862Z,58.71
2018-06-15T04:14:42.325Z,58.44
2018-06-15T04:18:45.758Z,58.28
2018-06-15T04:22:49.160Z,58.45
2018-06-15T04:26:52.612Z,58.61
2018-06-15T04:30:56.028Z,58.33
2018-06-15T04:34:59.483Z,57.61
2018-06-15T04:39:02.999Z,57.76
2018-06-15T04:43:06.526Z,57.54
2018-06-15T04:47:09.972Z,58.15
2018-06-15T04:51:13.443Z,57.14
2018-06-15T04:55:16.853Z,57.53
2018-06-15T04:59:20.316Z,57.37
2018-06-15T05:03:23.721Z,57.98
2018-06-15T05:07:27.308Z,57.66
2018-06-15T05:11:30.753Z,57.57
2018-06-15T05:15:34.422Z,57.48
2018-06-15T05:19:37.830Z,57.60
2018-06-15T05:23:41.273Z,56.66
2018-06-15T05:27:44.698Z,56.98
2018-06-15T05:31:48.187Z,57.45
2018-06-15T05:35:51.662Z,57.50
2018-06-15T05:39:55.134Z,57.01
2018-06-15T05:43:58.573Z,56.42
2018-06-15T05:48:02.033Z,56.48
2018-06-15T05:52:05.550Z,55.92
2018-06-15T05:56:08.980Z,56.09
2018-06-15T06:00:12.394Z,56.13
2018-06-15T06:04:15.869Z,56.07
2018-06-15T06:08:20.588Z,56.30
2018-06-15T06:12:24.017Z,56.33
2018-06-15T06:16:27.485Z,56.23
2018-06-15T06:20:30.939Z,56.39
2018-06-15T06:24:34.371Z,56.27
2018-06-15T06:28:37.828Z,56.33
2018-06-15T06:32:41.328Z,56.33
2018-06-15T06:36:44.746Z,56.12
2018-06-15T06:40:48.154Z,55.81
2018-06-15T06:44:51.607Z,56.22
2018-06-15T06:48:55.103Z,56.23
2018-06-15T06:52:58.560Z,56.02
2018-06-15T06:57:02.022Z,56.57
2018-06-15T07:01:05.448Z,56.47
2018-06-15T07:05:08.897Z,56.31
2018-06-15T07:09:12.332Z,56.51
2018-06-15T07:13:15.812Z,56.25
2018-06-15T07:17:19.212Z,56.15
2018-06-15T07:21:22.669Z,56.22
2018-06-15T07:25:26.124Z,56.57
2018-06-15T07:29:29.580Z,56.81
2018-06-15T07:33:33.002Z,56.44
2018-06-15T07:37:36.486Z,56.76
2018-06-15T07:41:39.956Z,56.53
2018-06-15T07:45:43.518Z,56.67
2018-06-15T07:49:46.901Z,56.52
2018-06-15T07:53:50.331Z,56.58
2018-06-15T07:57:53.766Z,56.67
2018-06-15T08:01:57.199Z,56.42
2018-06-15T08:06:00.647Z,56.69
2018-06-15T08:10:04.065Z,56.40
2018-06-15T08:14:07.511Z,56.37
2018-06-15T08:18:10.942Z,56.54
2018-06-15T08:22:14.455Z,56.03
2018-06-15T08:26:17.843Z,55.55
2018-06-15T08:30:21.283Z,55.76
2018-06-15T08:34:24.689Z,55.23
2018-06-15T08:38:28.116Z,55.34
2018-06-15T08:42:31.652Z,55.04
2018-06-15T08:46:35.072Z,54.96
2018-06-15T08:50:38.702Z,55.51
2018-06-15T08:54:42.142Z,54.54
2018-06-15T08:58:45.603Z,54.27
2018-06-15T09:02:49.051Z,54.64
2018-06-15T09:06:52.518Z,54.16
2018-06-15T09:10:55.942Z,53.55
2018-06-15T09:14:59.605Z,53.48
2018-06-15T09:19:03.026Z,53.21
2018-06-15T09:23:06.495Z,52.42
2018-06-15T09:27:09.963Z,50.79
2018-06-15T09:31:13.387Z,51.31
2018-06-15T09:35:16.862Z,49.37
2018-06-15T09:39:20.301Z,49.45
2018-06-15T09:43:23.870Z,48.47
2018-06-15T09:47:27.290Z,48.32
2018-06-15T09:51:30.752Z,47.34
2018-06-15T09:55:34.183Z,46.26
2018-06-15T09:59:37.610Z,45.99
2018-06-15T10:03:41.368Z,45.35
2018-06-15T10:07:44.793Z,46.00
2018-06-15T10:11:48.261Z,45.87
2018-06-15T10:15:51.701Z,45.06
2018-06-15T10:19:55.143Z,45.09
2018-06-15T10:23:58.734Z,43.91
2018-06-15T10:28:02.188Z,42.30
2018-06-15T10:32:05.902Z,43.17
2018-06-15T10:36:09.366Z,41.83
2018-06-15T10:40:12.838Z,42.25
2018-06-15T10:44:16.282Z,41.42
2018-06-15T10:48:19.712Z,41.18
2018-06-15T10:52:23.169Z,41.22
2018-06-15T10:56:26.626Z,40.10
2018-06-15T11:00:30.063Z,40.64
2018-06-15T11:04:33.617Z,39.86
2018-06-15T11:08:37.059Z,40.35
2018-06-15T11:12:40.481Z,41.71
2018-06-15T11:16:43.915Z,40.03
2018-06-15T11:20:47.322Z,40.38
2018-06-15T11:24:50.773Z,40.98
2018-06-15T11:28:54.245Z,41.16
2018-06-15T11:32:57.681Z,39.89
2018-06-15T11:37:01.356Z,40.08
2018-06-15T11:41:04.895Z,40.38
2018-06-15T11:45:08.271Z,40.21
2018-06-15T11:49:11.704Z,40.34
2018-06-15T11:53:15.105Z,39.51
2018-06-15T11:57:18.601Z,39.70
2018-06-15T12:01:22.029Z,39.80
2018-06-15T12:05:25.655Z,39.15
2018-06-15T12:09:29.102Z,41.00
2018-06-15T12:13:32.527Z,39.39
2018-06-15T12:17:35.927Z,38.72
2018-06-15T12:21:39.376Z,39.67
2018-06-15T12:25:42.807Z,39.16
2018-06-15T12:29:46.221Z,39.89
2018-06-15T12:33:49.786Z,39.08
2018-06-15T12:37:53.442Z,39.98
2018-06-15T12:41:56.898Z,39.44
2018-06-15T12:46:00.441Z,39.77
2018-06-15T12:50:03.905Z,39.41
2018-06-15T12:54:07.321Z,38.71
2018-06-15T12:58:10.757Z,39.69
2018-06-15T13:02:14.239Z,39.71
2018-06-15T13:06:18.525Z,40.28
2018-06-15T13:10:21.950Z,38.91
2018-06-15T13:14:25.382Z,39.30
2018-06-15T13:18:28.783Z,40.16
2018-06-15T13:22:32.212Z,39.14
2018-06-15T13:26:35.645Z,40.10
2018-06-15T13:30:39.065Z,40.42
2018-06-15T13:34:42.478Z,39.82
2018-06-15T13:38:45.919Z,38.69
2018-06-15T13:42:49.406Z,38.72
2018-06-15T13:46:52.899Z,39.48
2018-06-15T13:50:56.610Z,38.37
2018-06-15T13:55:00.047Z,39.52
2018-06-15T13:59:03.509Z,38.61
2018-06-15T14:03:06.935Z,38.94
2018-06-15T14:07:10.337Z,38.01
2018-06-15T14:11:13.795Z,38.85
2018-06-15T14:15:17.243Z,38.52
2018-06-15T14:19:20.679Z,38.09
2018-06-15T14:23:24.232Z,36.68
2018-06-15T14:27:27.657Z,37.45
2018-06-15T14:31:31.329Z,36.93
2018-06-15T14:35:34.753Z,36.75
2018-06-15T14:39:38.207Z,38.67
2018-06-15T14:43:41.659Z,38.70
2018-06-15T14:47:45.091Z,38.32
2018-06-15T14:51:48.525Z,37.94
2018-06-15T14:55:51.933Z,38.90
2018-06-15T14:59:55.357Z,37.15
2018-06-15T15:03:58.775Z,37.44
2018-06-15T15:08:02.233Z,37.40
2018-06-15T15:12:05.739Z,38.19
2018-06-15T15:16:09.152Z,37.05
2018-06-15T15:20:12.639Z,37.55
2018-06-15T15:24:16.079Z,38.00
2018-06-15T15:28:19.476Z,37.88
2018-06-15T15:32:22.962Z,38.55
2018-06-15T15:36:26.456Z,37.60
2018-06-15T15:40:29.835Z,38.24
2018-06-15T15:44:33.274Z,37.98
2018-06-15T15:48:36.718Z,37.66
2018-06-15T15:52:40.142Z,37.69
2018-06-15T15:56:43.594Z,38.40
2018-06-15T16:00:47.014Z,38.56
2018-06-15T16:04:50.439Z,39.30
2018-06-15T16:08:53.886Z,38.84
2018-06-15T16:12:57.316Z,38.79
2018-06-15T16:17:00.759Z,39.18
2018-06-15T16:21:04.186Z,38.22
2018-06-15T16:25:07.675Z,38.73
2018-06-15T16:29:11.119Z,39.35
2018-06-15T16:33:14.554Z,38.57
2018-06-15T16:37:18.046Z,39.53
2018-06-15T16:41:21.510Z,39.90
2018-06-15T16:45:24.973Z,40.32
2018-06-15T16:49:28.487Z,39.67
2018-06-15T16:53:32.138Z,40.03
2018-06-15T16:57:35.563Z,39.23
2018-06-15T17:01:39.009Z,39.75
2018-06-15T17:05:42.386Z,39.82
2018-06-15T17:09:45.878Z,39.95
2018-06-15T17:13:49.331Z,40.35
2018-06-15T17:17:52.738Z,39.98
2018-06-15T17:21:56.185Z,39.52
2018-06-15T17:25:59.630Z,39.93
2018-06-15T17:30:03.160Z,40.10
2018-06-15T17:34:06.727Z,40.18
2018-06-15T17:38:10.232Z,39.64
2018-06-15T17:42:13.622Z,40.15
2018-06-15T17:46:17.144Z,40.27
2018-06-15T17:50:20.546Z,40.23
2018-06-15T17:54:23.976Z,41.13
2018-06-15T17:58:27.412Z,40.42
2018-06-15T18:02:30.868Z,41.04
2018-06-15T18:06:34.329Z,41.23
2018-06-15T18:10:37.795Z,40.87
2018-06-15T18:14:41.578Z,41.27
2018-06-15T18:18:44.978Z,40.61
2018-06-15T18:22:48.420Z,41.27
2018-06-15T18:26:54.592Z,41.22
2018-06-15T18:30:58.371Z,41.54
2018-06-15T18:35:02.379Z,41.54
2018-06-15T18:39:08.987Z,40.71
2018-06-15T18:43:12.401Z,42.06
2018-06-15T18:47:15.838Z,41.75
2018-06-15T18:51:19.271Z,42.72
2018-06-15T18:55:22.774Z,41.87
2018-06-15T18:59:26.187Z,42.54
2018-06-15T19:03:29.613Z,41.95
2018-06-15T19:07:33.051Z,42.16
2018-06-15T19:11:36.510Z,42.42
2018-06-15T19:15:39.980Z,42.65
2018-06-15T19:19:43.413Z,41.78
2018-06-15T19:23:46.855Z,42.54
2018-06-15T19:27:50.302Z,42.34
2018-06-15T19:31:53.901Z,41.65
2018-06-15T19:35:57.348Z,42.90
2018-06-15T19:40:00.759Z,42.78
2018-06-15T19:44:04.166Z,43.19
2018-06-15T19:48:07.661Z,44.25
2018-06-15T19:52:11.053Z,44.52
2018-06-15T19:56:14.485Z,44.33
2018-06-15T20:00:17.891Z,44.17
2018-06-15T20:04:21.338Z,43.92
2018-06-15T20:08:24.781Z,45.10
2018-06-15T20:12:28.207Z,44.99
2018-06-15T20:16:31.645Z,44.52
2018-06-15T20:20:35.062Z,45.17
2018-06-15T20:24:38.487Z,45.26
2018-06-15T20:28:41.928Z,44.90
2018-06-15T20:32:45.339Z,44.83
2018-06-15T20:36:48.773Z,45.60
2018-06-15T20:40:52.206Z,44.97
2018-06-15T20:44:55.730Z,45.30
2018-06-15T20:48:59.122Z,45.86
2018-06-15T20:53:02.695Z,45.30
2018-06-15T20:57:06.381Z,45.28
2018-06-15T21:01:09.796Z,45.73
2018-06-15T21:05:13.240Z,45.66
2018-06-15T21:09:16.670Z,45.94
2018-06-15T21:13:20.139Z,46.23
2018-06-15T21:17:23.590Z,46.58
2018-06-15T21:21:27.033Z,46.39
2018-06-15T21:25:30.466Z,45.89
2018-06-15T21:29:33.951Z,47.18
2018-06-15T21:33:37.464Z,46.41
2018-06-15T21:37:40.921Z,46.74
2018-06-15T21:41:44.373Z,46.31
2018-06-15T21:45:47.790Z,47.13
2018-06-15T21:49:51.246Z,46.74
2018-06-15T21:53:54.714Z,47.01
2018-06-15T21:57:58.128Z,47.55
2018-06-15T22:02:01.610Z,47.27
2018-06-15T22:06:05.038Z,47.15
2018-06-15T22:10:08.461Z,47.52
2018-06-15T22:14:15.237Z,47.32
2018-06-15T22:18:18.722Z,47.01
2018-06-15T22:22:22.151Z,47.46
2018-06-15T22:26:25.585Z,47.00
2018-06-15T22:30:29.000Z,47.13
2018-06-15T22:34:32.441Z,47.25
2018-06-15T22:38:35.879Z,47.82
2018-06-15T22:42:39.319Z,48.13
2018-06-15T22:46:43.220Z,48.27
2018-06-15T22:50:46.690Z,48.00
2018-06-15T22:54:50.193Z,48.51
2018-06-15T22:58:53.628Z,48.26
2018-06-15T23:02:57.036Z,48.76
2018-06-15T23:07:00.466Z,48.30
2018-06-15T23:11:03.921Z,48.92
2018-06-15T23:15:07.363Z,48.60
2018-06-15T23:19:10.806Z,49.04
2018-06-15T23:23:14.198Z,48.55
2018-06-15T23:27:17.646Z,48.69
2018-06-15T23:31:21.066Z,49.33
2018-06-15T23:35:24.484Z,49.32
2018-06-15T23:39:28.165Z,49.45
2018-06-15T23:43:31.606Z,49.35
2018-06-15T23:47:35.016Z,49.53
2018-06-15T23:51:38.591Z,48.93
2018-06-15T23:55:42.002Z,49.95
2018-06-15T23:59:45.450Z,49.66
